createdAt,value
2022-11-22T00:02:42.948Z,-1.23
2022-11-22T00:05:30.511Z,-1.19
2022-11-22T00:08:18.301Z,-1.14
2022-11-22T00:11:05.959Z,-1.09
2022-11-22T00:13:53.591Z,-1.09
2022-11-22T00:16:41.246Z,-1.05
2022-11-22T00:19:29.175Z,-1.04
2022-11-22T00:22:16.971Z,-1.02
2022-11-22T00:25:05.736Z,-0.99
2022-11-22T00:27:53.891Z,-0.98
2022-11-22T00:30:41.537Z,-0.97
2022-11-22T00:33:29.154Z,-0.98
2022-11-22T00:36:17.325Z,-0.99
2022-11-22T00:39:05.094Z,-0.98
2022-11-22T00:41:52.714Z,-0.97
2022-11-22T00:44:40.339Z,-0.96
2022-11-22T00:47:27.950Z,-0.94
2022-11-22T00:50:15.879Z,-0.95
2022-11-22T00:53:03.542Z,-0.88
2022-11-22T00:55:51.204Z,-0.87
2022-11-22T00:58:38.780Z,-0.85
2022-11-22T01:01:26.441Z,-0.89
2022-11-22T01:04:14.231Z,-0.94
2022-11-22T01:07:03.115Z,-0.88
2022-11-22T01:09:50.735Z,-0.87
2022-11-22T01:12:38.318Z,-0.85
2022-11-22T01:15:25.967Z,-0.82
2022-11-22T01:18:13.576Z,-0.81
2022-11-22T01:21:01.625Z,-0.81
2022-11-22T01:23:49.298Z,-0.77
2022-11-22T01:26:37.113Z,-0.85
2022-11-22T01:29:24.839Z,-0.93
2022-11-22T01:32:12.531Z,-0.95
2022-11-22T01:35:00.188Z,-0.95
2022-11-22T01:37:47.875Z,-0.97
2022-11-22T01:40:35.900Z,-0.92
2022-11-22T01:43:28.473Z,-0.86
2022-11-22T01:46:39.680Z,-0.81
2022-11-22T01:49:48.163Z,-0.79
2022-11-22T01:52:35.827Z,-0.81
2022-11-22T01:55:23.996Z,-0.82
2022-11-22T01:58:14.713Z,-0.83
2022-11-22T02:01:02.837Z,-0.89
2022-11-22T02:03:53.028Z,-0.93
2022-11-22T02:06:43.671Z,-0.94
2022-11-22T02:09:33.396Z,-0.99
2022-11-22T02:12:26.595Z,-1.03
2022-11-22T02:15:14.589Z,-1.11
2022-11-22T02:18:02.212Z,-1.12
2022-11-22T02:20:50.117Z,-1.12
2022-11-22T02:23:43.154Z,-1.11
2022-11-22T02:26:32.172Z,-1.08
2022-11-22T02:29:20.631Z,-1.05
2022-11-22T02:32:08.237Z,-1.03
2022-11-22T02:34:55.913Z,-1.00
2022-11-22T02:37:43.637Z,-1.02
2022-11-22T02:40:43.005Z,-1.00
2022-11-22T02:43:35.035Z,-1.00
2022-11-22T02:46:23.716Z,-1.01
2022-11-22T02:49:11.289Z,-1.00
2022-11-22T02:51:59.114Z,-1.02
2022-11-22T02:54:46.923Z,-1.00
2022-11-22T02:57:34.517Z,-1.04
2022-11-22T03:00:22.794Z,-1.03
2022-11-22T03:03:10.588Z,-1.00
2022-11-22T03:06:16.764Z,-1.00
2022-11-22T03:09:04.375Z,-1.01
2022-11-22T03:11:53.086Z,-0.97
2022-11-22T03:14:40.743Z,-0.97
2022-11-22T03:17:28.375Z,-0.97
2022-11-22T03:20:16.069Z,-0.93
2022-11-22T03:23:03.730Z,-0.90
2022-11-22T03:25:51.365Z,-0.86
2022-11-22T03:28:42.776Z,-0.83
2022-11-22T03:31:30.531Z,-0.84
2022-11-22T03:34:18.287Z,-0.83
2022-11-22T03:37:05.921Z,-0.77
2022-11-22T03:39:53.860Z,-0.80
2022-11-22T03:42:41.453Z,-0.82
2022-11-22T03:45:30.123Z,-0.83
2022-11-22T03:48:18.277Z,-0.82
2022-11-22T03:51:07.101Z,-0.82
2022-11-22T03:53:54.683Z,-0.81
2022-11-22T03:56:42.598Z,-0.79
2022-11-22T03:59:30.411Z,-0.77
2022-11-22T04:02:18.198Z,-0.80
2022-11-22T04:05:06.260Z,-0.79
2022-11-22T04:07:56.225Z,-0.75
2022-11-22T04:10:43.934Z,-0.74
2022-11-22T04:13:50.110Z,-0.72
2022-11-22T04:16:37.744Z,-0.74
2022-11-22T04:19:25.443Z,-0.78
2022-11-22T04:22:13.071Z,-0.84
2022-11-22T04:25:15.752Z,-0.80
2022-11-22T04:28:04.661Z,-0.81
2022-11-22T04:31:15.482Z,-0.77
2022-11-22T04:34:03.237Z,-0.77
2022-11-22T04:36:51.597Z,-0.79
2022-11-22T04:39:40.413Z,-0.74
2022-11-22T04:42:47.140Z,-0.63
2022-11-22T06:30:19.126Z,0.37
2022-11-22T06:33:35.784Z,0.34
2022-11-22T06:40:27.702Z,0.50
2022-11-22T06:43:52.261Z,0.53
2022-11-22T06:47:27.680Z,0.56
2022-11-22T06:50:34.902Z,0.56
2022-11-22T06:53:58.102Z,0.48
2022-11-22T07:23:23.673Z,0.72
2022-11-22T07:26:59.586Z,0.75
2022-11-22T07:33:33.730Z,0.73
2022-11-22T07:40:01.756Z,0.98
2022-11-22T07:42:58.777Z,1.01
2022-11-22T07:45:52.303Z,1.04
2022-11-22T07:48:43.712Z,1.08
2022-11-22T07:51:33.939Z,1.05
2022-11-22T07:54:25.206Z,1.09
2022-11-22T07:57:14.316Z,1.12
2022-11-22T08:00:03.378Z,1.11
2022-11-22T08:02:55.021Z,1.14
2022-11-22T08:05:45.450Z,1.17
2022-11-22T08:08:36.342Z,1.11
2022-11-22T08:11:26.120Z,1.19
2022-11-22T08:14:15.291Z,1.19
2022-11-22T08:17:10.013Z,1.17
2022-11-22T08:20:02.165Z,1.13
2022-11-22T08:22:51.622Z,1.16
2022-11-22T08:25:40.108Z,1.11
2022-11-22T08:28:28.449Z,1.20
2022-11-22T08:31:19.928Z,1.17
2022-11-22T08:34:08.042Z,1.21
2022-11-22T08:36:56.589Z,1.23
2022-11-22T08:39:45.153Z,1.30
2022-11-22T08:42:33.509Z,1.31
2022-11-22T08:45:21.525Z,1.37
2022-11-22T08:48:09.835Z,1.43
2022-11-22T08:51:00.883Z,1.49
2022-11-22T08:53:49.728Z,1.51
2022-11-22T08:56:37.713Z,1.53
2022-11-22T08:59:25.551Z,1.58
2022-11-22T09:02:13.281Z,1.54
2022-11-22T09:05:00.895Z,1.56
2022-11-22T09:10:59.755Z,1.71
2022-11-22T09:13:48.067Z,1.76
2022-11-22T09:16:35.733Z,1.80
2022-11-22T09:19:23.435Z,1.83
2022-11-22T09:22:11.133Z,1.83
2022-11-22T09:24:58.809Z,1.82
2022-11-22T09:27:46.514Z,1.81
2022-11-22T09:30:34.170Z,1.78
2022-11-22T09:33:21.745Z,1.82
2022-11-22T09:36:23.576Z,1.80
2022-11-22T09:39:11.274Z,1.81
2022-11-22T09:42:22.631Z,1.77
2022-11-22T09:45:42.274Z,1.75
2022-11-22T09:48:45.409Z,1.74
2022-11-22T09:51:46.445Z,1.86
2022-11-22T09:54:46.601Z,1.91
2022-11-22T09:57:40.682Z,1.95
2022-11-22T10:00:30.269Z,1.95
2022-11-22T10:03:42.083Z,1.95
2022-11-22T10:06:34.607Z,1.93
2022-11-22T10:10:11.631Z,1.90
2022-11-22T10:13:11.694Z,1.88
2022-11-22T10:16:25.637Z,1.87
2022-11-22T10:19:41.419Z,1.84
2022-11-22T10:22:30.413Z,1.81
2022-11-22T10:25:27.774Z,1.84
2022-11-22T10:28:19.326Z,1.89
2022-11-22T10:31:17.724Z,1.95
2022-11-22T10:34:08.064Z,2.00
2022-11-22T10:37:16.153Z,2.05
2022-11-22T10:40:12.800Z,2.08
2022-11-22T10:43:28.307Z,2.14
2022-11-22T10:46:56.889Z,2.13
2022-11-22T10:50:09.028Z,2.09
2022-11-22T10:53:27.821Z,2.07
2022-11-22T10:56:24.707Z,2.06
2022-11-22T10:59:36.995Z,2.10
2022-11-22T11:02:36.958Z,2.14
2022-11-22T11:05:33.442Z,2.16
2022-11-22T11:08:41.999Z,2.17
2022-11-22T11:11:38.757Z,2.20
2022-11-22T11:14:46.224Z,2.24
2022-11-22T11:17:37.199Z,2.22
2022-11-22T11:20:34.668Z,2.26
2022-11-22T11:23:22.425Z,2.28
2022-11-22T11:26:16.105Z,2.32
2022-11-22T11:29:36.121Z,2.29
2022-11-22T11:32:25.459Z,2.20
2022-11-22T11:35:14.048Z,2.15
2022-11-22T11:38:01.631Z,2.14
2022-11-22T11:40:49.398Z,2.14
2022-11-22T11:43:43.195Z,2.17
2022-11-22T11:46:36.958Z,2.20
2022-11-22T11:49:30.196Z,2.22
2022-11-22T11:52:23.377Z,2.25
2022-11-22T11:55:17.084Z,2.25
2022-11-22T11:58:19.513Z,2.25
2022-11-22T12:01:12.440Z,2.20
2022-11-22T12:04:03.877Z,2.20
2022-11-22T12:07:02.975Z,2.16
2022-11-22T12:09:53.585Z,2.19
2022-11-22T12:12:48.607Z,2.22
2022-11-22T12:16:01.569Z,2.23
2022-11-22T12:18:58.965Z,2.19
2022-11-22T12:21:56.954Z,2.16
2022-11-22T12:25:24.759Z,2.16
2022-11-22T12:28:21.723Z,2.18
2022-11-22T12:31:28.410Z,2.18
2022-11-22T12:34:38.087Z,2.20
2022-11-22T12:37:40.363Z,2.22
2022-11-22T12:40:37.665Z,2.19
2022-11-22T12:43:28.255Z,2.21
2022-11-22T12:46:26.477Z,2.23
2022-11-22T12:49:28.987Z,2.23
2022-11-22T12:52:33.002Z,2.24
2022-11-22T12:55:25.197Z,2.22
2022-11-22T12:58:12.718Z,2.19
2022-11-22T13:01:15.810Z,2.19
2022-11-22T13:04:09.837Z,2.16
2022-11-22T13:07:22.422Z,2.23
2022-11-22T13:10:26.515Z,2.27
2022-11-22T13:13:23.329Z,2.27
2022-11-22T13:16:12.427Z,2.26
2022-11-22T13:19:06.300Z,2.31
2022-11-22T13:22:07.968Z,2.32
2022-11-22T13:25:17.361Z,2.35
2022-11-22T13:28:29.289Z,2.32
2022-11-22T13:31:25.132Z,2.29
2022-11-22T13:34:26.537Z,2.31
2022-11-22T13:37:16.888Z,2.35
2022-11-22T13:40:16.612Z,2.40
2022-11-22T13:43:17.985Z,2.35
2022-11-22T13:46:47.846Z,2.33
2022-11-22T13:49:47.904Z,2.28
2022-11-22T13:52:53.550Z,2.31
2022-11-22T13:55:42.694Z,2.27
2022-11-22T13:59:03.505Z,2.27
2022-11-22T14:01:51.964Z,2.28
2022-11-22T14:04:41.898Z,2.36
2022-11-22T14:07:34.328Z,2.39
2022-11-22T14:10:54.120Z,2.40
2022-11-22T14:14:06.092Z,2.38
2022-11-22T14:17:17.739Z,2.36
2022-11-22T14:20:32.448Z,2.38
2022-11-22T14:23:46.476Z,2.40
2022-11-22T14:26:41.724Z,2.43
2022-11-22T14:29:57.376Z,2.46
2022-11-22T14:33:01.761Z,2.44
2022-11-22T14:36:09.609Z,2.49
2022-11-22T14:38:57.536Z,2.44
2022-11-22T14:41:45.208Z,2.46
2022-11-22T14:44:35.480Z,2.48
2022-11-22T14:47:23.300Z,2.48
2022-11-22T14:50:18.724Z,2.52
2022-11-22T14:53:21.322Z,2.52
2022-11-22T14:56:22.824Z,2.50
2022-11-22T14:59:47.544Z,2.46
2022-11-22T15:02:58.413Z,2.43
2022-11-22T15:09:20.086Z,2.43
2022-11-22T15:09:48.823Z,2.43
2022-11-22T15:13:31.524Z,2.46
